createdAt,value
2023-03-02T00:01:34.971Z,100905.72
2023-03-02T00:04:04.205Z,100907.41
2023-03-02T00:06:32.364Z,100905.06
2023-03-02T00:09:00.906Z,100901.28
2023-03-02T00:11:30.149Z,100901.53
2023-03-02T00:13:57.277Z,100890.38
2023-03-02T00:16:24.520Z,100898.41
2023-03-02T00:18:51.645Z,100889.03
2023-03-02T00:21:18.454Z,100894.03
2023-03-02T00:23:45.392Z,100899.19
2023-03-02T00:26:12.363Z,100897.53
2023-03-02T00:28:39.351Z,100895.63
2023-03-02T00:31:06.920Z,100897.47
2023-03-02T00:33:34.915Z,100901.78
2023-03-02T00:36:02.864Z,100900.91
2023-03-02T00:38:30.284Z,100897.44
2023-03-02T00:40:59.528Z,100899.75
2023-03-02T00:43:28.318Z,100913.47
2023-03-02T00:45:55.886Z,100908.41
2023-03-02T00:48:23.370Z,100914.72
2023-03-02T00:50:50.421Z,100898.53
2023-03-02T00:53:18.300Z,100905.78
2023-03-02T00:55:56.484Z,100893.97
2023-03-02T00:58:23.403Z,100902.03
2023-03-02T01:00:50.353Z,100901.37
2023-03-02T01:03:17.397Z,100910.38
2023-03-02T01:05:44.334Z,100903.25
2023-03-02T01:08:12.160Z,100905.97
2023-03-02T01:10:39.440Z,100905.31
2023-03-02T01:13:07.273Z,100902.84
2023-03-02T01:15:34.840Z,100903.78
2023-03-02T01:18:01.846Z,100900.31
2023-03-02T01:20:29.630Z,100892.25
2023-03-02T01:22:56.787Z,100888.63
2023-03-02T01:25:23.640Z,100889.53
2023-03-02T01:27:50.577Z,100887.81
2023-03-02T01:30:17.596Z,100886.78
2023-03-02T01:32:44.519Z,100889.41
2023-03-02T01:35:11.754Z,100887.06
2023-03-02T01:37:38.669Z,100882.72
2023-03-02T01:40:06.947Z,100881.34
2023-03-02T01:42:47.676Z,100877.13
2023-03-02T01:45:45.813Z,100875.34
2023-03-02T01:48:16.001Z,100869.31
2023-03-02T01:50:42.991Z,100877.28
2023-03-02T01:53:10.019Z,100874.75
2023-03-02T01:55:39.195Z,100872.53
2023-03-02T01:58:06.953Z,100872.22
2023-03-02T02:00:38.287Z,100868.34
2023-03-02T02:03:14.799Z,100866.00
2023-03-02T02:05:44.830Z,100863.25
2023-03-02T02:08:11.767Z,100862.91
2023-03-02T02:10:40.153Z,100858.22
2023-03-02T02:13:10.992Z,100863.06
2023-03-02T02:15:39.233Z,100857.28
2023-03-02T02:18:06.826Z,100861.41
2023-03-02T02:20:54.337Z,100850.66
2023-03-02T02:23:24.158Z,100855.91
2023-03-02T02:25:53.705Z,100850.66
2023-03-02T02:28:42.795Z,100852.34
2023-03-02T02:31:22.633Z,100855.06
2023-03-02T02:33:58.449Z,100852.69
2023-03-02T02:36:33.910Z,100854.37
2023-03-02T02:39:04.755Z,100851.72
2023-03-02T02:41:38.970Z,100851.31
2023-03-02T02:44:06.959Z,100853.81
2023-03-02T02:46:34.651Z,100845.97
2023-03-02T02:49:03.843Z,100847.31
2023-03-02T02:51:31.040Z,100839.00
2023-03-02T02:54:00.751Z,100838.97
2023-03-02T02:56:35.521Z,100837.84
2023-03-02T02:59:29.216Z,100839.91
2023-03-02T03:01:58.069Z,100838.00
2023-03-02T03:04:30.135Z,100842.06
2023-03-02T03:07:05.399Z,100840.59
2023-03-02T03:09:32.826Z,100831.34
2023-03-02T03:12:08.801Z,100836.78
2023-03-02T03:14:39.813Z,100829.69
2023-03-02T03:17:12.377Z,100828.12
2023-03-02T03:19:42.832Z,100838.50
2023-03-02T03:22:13.276Z,100826.84
2023-03-02T03:24:42.593Z,100830.88
2023-03-02T03:27:12.504Z,100835.66
2023-03-02T03:29:45.179Z,100826.06
2023-03-02T03:32:12.227Z,100826.78
2023-03-02T03:34:41.051Z,100831.47
2023-03-02T03:37:10.668Z,100830.97
2023-03-02T03:39:37.945Z,100836.72
2023-03-02T03:42:05.911Z,100835.50
2023-03-02T03:44:33.636Z,100841.47
2023-03-02T03:47:00.974Z,100836.16
2023-03-02T03:49:28.186Z,100841.09
2023-03-02T03:51:55.513Z,100838.44
2023-03-02T03:54:22.596Z,100837.13
2023-03-02T03:56:50.912Z,100849.16
2023-03-02T03:59:21.958Z,100843.53
2023-03-02T04:01:55.218Z,100845.12
2023-03-02T04:04:28.998Z,100844.13
2023-03-02T04:06:56.016Z,100849.22
2023-03-02T04:09:23.735Z,100852.78
2023-03-02T04:11:53.820Z,100860.34
2023-03-02T04:14:23.427Z,100862.03
2023-03-02T04:16:51.031Z,100860.13
2023-03-02T04:19:18.088Z,100858.66
2023-03-02T04:21:48.183Z,100864.13
2023-03-02T04:24:16.823Z,100858.72
2023-03-02T04:26:45.695Z,100860.22
2023-03-02T04:29:13.397Z,100870.97
2023-03-02T04:31:40.510Z,100865.94
2023-03-02T04:34:08.757Z,100857.47
2023-03-02T04:36:39.238Z,100851.19
2023-03-02T04:39:07.509Z,100849.56
2023-03-02T04:41:35.119Z,100849.94
2023-03-02T04:44:02.202Z,100856.84
2023-03-02T04:46:29.413Z,100859.09
2023-03-02T04:48:56.836Z,100851.00
2023-03-02T04:51:33.431Z,100841.97
2023-03-02T04:54:03.483Z,100844.84
2023-03-02T04:56:31.300Z,100843.44
2023-03-02T04:58:58.693Z,100846.91
2023-03-02T05:01:25.845Z,100838.44
2023-03-02T05:03:53.433Z,100846.97
2023-03-02T05:06:21.954Z,100840.22
2023-03-02T05:08:49.605Z,100838.19
2023-03-02T05:11:22.558Z,100839.22
2023-03-02T05:13:51.440Z,100848.66
2023-03-02T05:16:19.650Z,100839.03
2023-03-02T05:18:47.596Z,100840.63
2023-03-02T05:21:15.917Z,100840.28
2023-03-02T05:23:43.735Z,100849.12
2023-03-02T05:26:11.397Z,100849.19
2023-03-02T05:28:39.180Z,100854.66
2023-03-02T05:31:07.349Z,100852.59
2023-03-02T05:33:34.838Z,100851.59
2023-03-02T05:36:02.041Z,100858.28
2023-03-02T05:38:31.693Z,100855.09
2023-03-02T05:40:58.811Z,100860.69
2023-03-02T05:43:25.839Z,100860.81
2023-03-02T05:45:52.875Z,100856.59
2023-03-02T05:48:19.833Z,100863.59
2023-03-02T05:50:46.822Z,100860.13
2023-03-02T05:53:13.764Z,100865.34
2023-03-02T05:55:40.769Z,100872.47
2023-03-02T05:58:12.002Z,100867.50
2023-03-02T06:00:38.906Z,100875.62
2023-03-02T06:03:05.879Z,100877.37
2023-03-02T06:05:32.891Z,100881.53
2023-03-02T06:07:59.840Z,100884.75
2023-03-02T06:10:27.252Z,100879.62
2023-03-02T06:12:54.305Z,100885.06
2023-03-02T06:15:21.651Z,100878.25
2023-03-02T06:17:48.958Z,100880.16
2023-03-02T06:20:16.826Z,100879.06
2023-03-02T06:22:45.644Z,100884.00
2023-03-02T06:25:15.545Z,100884.72
2023-03-02T06:27:42.419Z,100885.56
2023-03-02T06:30:16.292Z,100885.38
2023-03-02T06:32:43.710Z,100880.19
2023-03-02T06:35:13.719Z,100880.78
2023-03-02T06:37:43.739Z,100878.88
2023-03-02T06:40:12.374Z,100883.16
2023-03-02T06:42:40.121Z,100887.94
2023-03-02T06:45:08.742Z,100887.13
2023-03-02T06:47:35.689Z,100882.94
2023-03-02T06:50:02.748Z,100875.09
2023-03-02T06:52:29.925Z,100878.72
2023-03-02T06:54:57.038Z,100873.41
2023-03-02T06:57:24.177Z,100880.53
2023-03-02T06:59:52.450Z,100877.00
2023-03-02T07:02:19.387Z,100881.13
2023-03-02T07:04:46.425Z,100877.78
2023-03-02T07:07:13.486Z,100871.31
2023-03-02T07:09:42.589Z,100877.34
2023-03-02T07:12:10.144Z,100875.09
2023-03-02T07:14:37.410Z,100879.41
2023-03-02T07:17:05.466Z,100878.63
2023-03-02T07:19:32.485Z,100863.06
2023-03-02T07:21:59.488Z,100869.84
2023-03-02T07:24:26.496Z,100863.19
2023-03-02T07:26:53.475Z,100859.25
2023-03-02T07:29:20.516Z,100867.41
2023-03-02T07:31:47.614Z,100870.47
2023-03-02T07:34:16.045Z,100875.41
2023-03-02T07:36:43.077Z,100867.87
2023-03-02T07:39:10.112Z,100868.91
2023-03-02T07:41:37.268Z,100876.53
2023-03-02T07:44:04.269Z,100876.25
2023-03-02T07:46:31.286Z,100870.53
2023-03-02T07:48:59.390Z,100865.66
2023-03-02T07:51:26.504Z,100866.78
2023-03-02T07:53:55.567Z,100874.97
2023-03-02T07:56:22.589Z,100871.59
2023-03-02T07:58:49.599Z,100872.34
2023-03-02T08:01:16.580Z,100860.66
2023-03-02T08:03:43.732Z,100860.47
2023-03-02T08:06:12.710Z,100861.03
2023-03-02T08:08:40.169Z,100860.03
2023-03-02T08:11:09.666Z,100853.53
2023-03-02T08:13:38.948Z,100856.41
2023-03-02T08:16:08.418Z,100854.03
2023-03-02T08:18:36.585Z,100862.00
2023-03-02T08:21:06.508Z,100855.78
2023-03-02T08:23:33.420Z,100860.03
2023-03-02T08:26:00.491Z,100860.63
2023-03-02T08:28:27.686Z,100854.88
2023-03-02T08:30:59.360Z,100855.72
2023-03-02T08:33:27.985Z,100859.59
2023-03-02T08:36:03.462Z,100856.34
2023-03-02T08:38:31.831Z,100855.62
2023-03-02T08:41:08.095Z,100845.75
2023-03-02T08:43:35.245Z,100854.88
2023-03-02T08:46:03.409Z,100846.78
2023-03-02T08:48:30.792Z,100846.66
2023-03-02T08:51:01.001Z,100853.16
2023-03-02T08:53:30.972Z,100853.84
2023-03-02T08:55:58.063Z,100841.44
2023-03-02T08:58:25.650Z,100850.44
2023-03-02T09:00:53.410Z,100847.63
2023-03-02T09:03:22.595Z,100845.78
2023-03-02T09:05:49.566Z,100846.81
2023-03-02T09:08:16.786Z,100844.28
2023-03-02T09:10:43.766Z,100835.75
2023-03-02T09:13:10.826Z,100841.13
2023-03-02T09:15:37.938Z,100829.44
2023-03-02T09:18:05.254Z,100837.37
2023-03-02T09:20:37.108Z,100842.66
2023-03-02T09:23:06.237Z,100835.72
2023-03-02T09:25:33.267Z,100841.00
2023-03-02T09:28:00.331Z,100831.47
2023-03-02T09:30:27.522Z,100831.38
2023-03-02T09:32:54.718Z,100828.03
2023-03-02T09:35:21.843Z,100832.38
2023-03-02T09:37:49.019Z,100839.41
2023-03-02T09:40:25.369Z,100833.28
2023-03-02T09:43:21.763Z,100829.78
2023-03-02T09:46:18.685Z,100844.31
2023-03-02T09:49:28.738Z,100844.13
2023-03-02T09:52:36.924Z,100839.81
2023-03-02T09:55:20.157Z,100837.84
2023-03-02T09:57:50.023Z,100842.53
2023-03-02T10:00:25.909Z,100847.56
2023-03-02T10:03:11.343Z,100839.63
2023-03-02T10:05:49.351Z,100844.97
2023-03-02T10:08:25.958Z,100848.47
2023-03-02T10:11:13.868Z,100837.75
2023-03-02T10:13:59.301Z,100838.38
2023-03-02T10:16:49.956Z,100831.81
2023-03-02T10:19:25.641Z,100837.97
2023-03-02T10:22:02.338Z,100835.22
2023-03-02T10:24:37.441Z,100837.66
2023-03-02T10:27:26.375Z,100832.63
2023-03-02T10:30:00.250Z,100838.25
2023-03-02T10:32:38.554Z,100830.34
2023-03-02T10:35:18.666Z,100834.50
2023-03-02T10:37:48.586Z,100843.81
2023-03-02T10:40:57.289Z,100826.44
2023-03-02T10:43:31.033Z,100830.91
2023-03-02T10:46:07.914Z,100828.50
2023-03-02T10:49:01.411Z,100825.91
2023-03-02T10:51:30.704Z,100828.47
2023-03-02T10:54:14.160Z,100828.16
2023-03-02T10:56:52.414Z,100824.44
2023-03-02T10:59:25.428Z,100818.34
2023-03-02T11:02:03.424Z,100817.56
2023-03-02T11:04:31.534Z,100810.75
2023-03-02T11:07:21.443Z,100808.81
2023-03-02T11:10:00.551Z,100805.63
2023-03-02T11:12:28.804Z,100812.66
2023-03-02T11:15:04.225Z,100816.19
2023-03-02T11:17:40.598Z,100808.97
2023-03-02T11:20:17.245Z,100803.88
2023-03-02T11:22:57.004Z,100804.88
2023-03-02T11:25:30.421Z,100805.56
2023-03-02T11:28:10.956Z,100805.84
2023-03-02T11:30:48.555Z,100807.28
2023-03-02T11:33:36.457Z,100804.72
2023-03-02T11:36:19.200Z,100798.66
2023-03-02T11:38:50.308Z,100795.22
2023-03-02T11:41:30.165Z,100788.38
2023-03-02T11:44:19.044Z,100792.75
2023-03-02T11:47:03.163Z,100791.97
2023-03-02T11:49:40.303Z,100778.03
2023-03-02T11:52:28.692Z,100788.25
2023-03-02T11:55:00.729Z,100778.84
2023-03-02T11:57:39.781Z,100778.91
2023-03-02T12:00:19.459Z,100775.28
2023-03-02T12:02:48.711Z,100767.59
2023-03-02T12:05:33.286Z,100771.09
2023-03-02T12:08:02.772Z,100769.34
2023-03-02T12:10:44.443Z,100762.28
2023-03-02T12:13:26.073Z,100763.06
2023-03-02T12:15:53.309Z,100756.84
2023-03-02T12:18:23.404Z,100749.66
2023-03-02T12:21:09.684Z,100743.34
2023-03-02T12:23:56.206Z,100748.63
2023-03-02T12:26:32.029Z,100742.25
2023-03-02T12:29:23.807Z,100735.72
2023-03-02T12:31:56.367Z,100740.81
2023-03-02T12:34:33.365Z,100728.91
2023-03-02T12:37:22.692Z,100733.78
2023-03-02T12:39:57.296Z,100723.31
2023-03-02T12:42:49.798Z,100729.47
2023-03-02T12:45:40.483Z,100725.13
2023-03-02T12:48:25.345Z,100737.34
2023-03-02T12:51:01.848Z,100726.13
2023-03-02T12:53:29.896Z,100729.31
2023-03-02T12:55:56.958Z,100719.06
2023-03-02T12:58:32.870Z,100731.03
2023-03-02T13:01:02.515Z,100732.37
2023-03-02T13:03:31.673Z,100738.63
2023-03-02T13:06:15.824Z,100731.63
2023-03-02T13:08:53.349Z,100731.66
2023-03-02T13:11:33.405Z,100730.75
2023-03-02T13:14:03.918Z,100732.53
2023-03-02T13:16:33.842Z,100720.12
2023-03-02T13:19:11.712Z,100716.78
2023-03-02T13:21:42.573Z,100725.50
2023-03-02T13:24:28.232Z,100718.47
2023-03-02T13:26:59.723Z,100717.63
2023-03-02T13:29:28.323Z,100714.16
2023-03-02T13:31:56.132Z,100710.66
2023-03-02T13:34:34.749Z,100714.16
2023-03-02T13:37:04.100Z,100706.28
2023-03-02T13:39:34.604Z,100706.28
2023-03-02T13:42:03.589Z,100704.50
2023-03-02T13:44:35.668Z,100698.34
2023-03-02T13:47:03.186Z,100700.84
2023-03-02T13:49:33.352Z,100709.69
2023-03-02T13:52:27.842Z,100708.66
2023-03-02T13:54:54.894Z,100711.34
2023-03-02T13:57:30.653Z,100711.31
2023-03-02T14:00:01.705Z,100705.31
2023-03-02T14:02:30.364Z,100707.16
2023-03-02T14:04:57.975Z,100703.62
2023-03-02T14:07:25.087Z,100701.91
2023-03-02T14:09:52.103Z,100698.37
2023-03-02T14:12:31.272Z,100699.16
2023-03-02T14:15:02.237Z,100699.09
2023-03-02T14:17:29.721Z,100701.00
2023-03-02T14:19:57.114Z,100692.16
2023-03-02T14:22:27.028Z,100690.44
2023-03-02T14:24:56.206Z,100691.19
2023-03-02T14:27:24.997Z,100681.72
2023-03-02T14:29:52.318Z,100678.16
2023-03-02T14:32:19.510Z,100686.88
2023-03-02T14:34:47.003Z,100684.25
2023-03-02T14:37:17.088Z,100677.34
2023-03-02T14:39:47.791Z,100672.97
2023-03-02T14:42:17.210Z,100675.62
2023-03-02T14:44:46.189Z,100669.38
2023-03-02T14:47:14.082Z,100684.34
2023-03-02T14:49:41.116Z,100678.16
2023-03-02T14:52:20.186Z,100676.47
2023-03-02T14:54:54.028Z,100676.47
2023-03-02T14:57:25.588Z,100672.13
2023-03-02T14:59:53.610Z,100672.13
2023-03-02T15:02:25.969Z,100664.16
2023-03-02T15:04:57.457Z,100667.72
2023-03-02T15:07:26.899Z,100659.88
2023-03-02T15:09:55.546Z,100657.19
2023-03-02T15:12:22.666Z,100662.44
2023-03-02T15:14:54.022Z,100663.31
2023-03-02T15:17:21.039Z,100664.91
2023-03-02T15:19:48.355Z,100662.34
2023-03-02T15:22:18.066Z,100665.91
2023-03-02T15:24:45.069Z,100671.81
2023-03-02T15:27:12.021Z,100668.50
2023-03-02T15:29:39.028Z,100669.09
2023-03-02T15:32:06.263Z,100675.66
2023-03-02T15:34:33.400Z,100673.44
2023-03-02T15:37:00.381Z,100673.78
2023-03-02T15:39:27.357Z,100667.72
2023-03-02T15:41:56.468Z,100668.63
2023-03-02T15:44:24.703Z,100666.88
2023-03-02T15:46:57.253Z,100671.25
2023-03-02T15:49:27.483Z,100678.22
2023-03-02T15:51:57.827Z,100671.19
2023-03-02T15:54:26.418Z,100667.59
2023-03-02T15:56:53.807Z,100670.22
2023-03-02T15:59:31.368Z,100667.47
2023-03-02T16:02:01.786Z,100670.91
2023-03-02T16:04:34.715Z,100669.97
2023-03-02T16:07:02.417Z,100670.81
2023-03-02T16:09:31.154Z,100664.69
2023-03-02T16:11:58.280Z,100662.03
2023-03-02T16:14:27.281Z,100658.59
2023-03-02T16:16:54.336Z,100666.38
2023-03-02T16:19:23.364Z,100665.50
2023-03-02T16:21:50.256Z,100658.50
2023-03-02T16:24:19.477Z,100663.72
2023-03-02T16:26:46.400Z,100661.06
2023-03-02T16:29:15.441Z,100661.88
2023-03-02T16:31:45.244Z,100660.16
2023-03-02T16:34:12.066Z,100659.34
2023-03-02T16:36:40.928Z,100667.19
2023-03-02T16:39:09.734Z,100664.59
2023-03-02T16:41:37.714Z,100668.16
2023-03-02T16:44:04.915Z,100669.03
2023-03-02T16:46:36.559Z,100677.81
2023-03-02T16:49:05.173Z,100677.91
2023-03-02T16:51:35.004Z,100681.44
2023-03-02T16:54:02.266Z,100679.66
2023-03-02T16:56:29.404Z,100677.87
2023-03-02T16:58:58.233Z,100685.75
2023-03-02T17:01:26.822Z,100686.69
2023-03-02T17:03:54.033Z,100691.16
2023-03-02T17:06:24.165Z,100690.25
2023-03-02T17:08:53.632Z,100691.97
2023-03-02T17:11:21.334Z,100691.19
2023-03-02T17:13:48.285Z,100695.53
2023-03-02T17:16:17.116Z,100698.19
2023-03-02T17:18:47.334Z,100699.97
2023-03-02T17:21:16.765Z,100700.88
2023-03-02T17:23:44.863Z,100702.59
2023-03-02T17:26:11.833Z,100705.19
2023-03-02T17:28:39.522Z,100707.03
2023-03-02T17:31:07.173Z,100700.03
2023-03-02T17:33:34.745Z,100700.00
2023-03-02T17:36:07.591Z,100701.72
2023-03-02T17:38:34.680Z,100703.53
2023-03-02T17:41:03.764Z,100712.28
2023-03-02T17:43:35.729Z,100703.56
2023-03-02T17:46:13.765Z,100709.72
2023-03-02T17:48:41.961Z,100708.81
2023-03-02T17:51:09.218Z,100711.44
2023-03-02T17:53:36.395Z,100704.41
2023-03-02T17:56:03.398Z,100707.94
2023-03-02T17:58:42.808Z,100714.06
2023-03-02T18:01:12.563Z,100710.56
2023-03-02T18:03:39.675Z,100713.22
2023-03-02T18:06:07.031Z,100715.78
2023-03-02T18:08:33.963Z,100712.25
2023-03-02T18:11:00.994Z,100719.28
2023-03-02T18:13:28.012Z,100721.09
2023-03-02T18:15:55.090Z,100722.00
2023-03-02T18:18:22.301Z,100716.72
2023-03-02T18:20:49.232Z,100719.38
2023-03-02T18:23:16.394Z,100715.00
2023-03-02T18:25:43.343Z,100706.25
2023-03-02T18:28:10.310Z,100712.38
2023-03-02T18:30:37.267Z,100703.62
2023-03-02T18:33:04.261Z,100703.59
2023-03-02T18:35:31.644Z,100701.00
2023-03-02T18:37:58.674Z,100699.22
2023-03-02T18:40:25.665Z,100700.12
2023-03-02T18:42:52.599Z,100708.00
2023-03-02T18:45:27.623Z,100706.25
2023-03-02T18:47:55.204Z,100705.37
2023-03-02T18:50:23.251Z,100701.87
2023-03-02T18:52:53.043Z,100710.66
2023-03-02T18:55:25.047Z,100705.41
2023-03-02T18:57:54.127Z,100707.13
2023-03-02T19:00:27.727Z,100709.75
2023-03-02T19:02:59.366Z,100707.16
2023-03-02T19:05:27.289Z,100702.75
2023-03-02T19:07:55.035Z,100708.91
2023-03-02T19:10:21.945Z,100711.53
2023-03-02T19:12:48.973Z,100708.91
2023-03-02T19:15:16.092Z,100711.53
2023-03-02T19:17:43.718Z,100715.91
2023-03-02T19:20:15.912Z,100709.78
2023-03-02T19:22:42.884Z,100710.66
2023-03-02T19:25:10.131Z,100711.50
2023-03-02T19:27:37.192Z,100715.03
2023-03-02T19:30:05.798Z,100713.28
2023-03-02T19:32:32.803Z,100708.91
2023-03-02T19:35:00.158Z,100712.41
2023-03-02T19:37:27.165Z,100710.66
2023-03-02T19:39:54.307Z,100709.78
2023-03-02T19:42:21.350Z,100702.78
2023-03-02T19:44:48.239Z,100708.91
2023-03-02T19:47:15.211Z,100708.03
2023-03-02T19:49:42.202Z,100713.22
2023-03-02T19:52:09.547Z,100713.25
2023-03-02T19:54:36.482Z,100710.59
2023-03-02T19:57:03.882Z,100708.84
2023-03-02T19:59:32.731Z,100707.09
2023-03-02T20:01:59.757Z,100709.72
2023-03-02T20:04:27.022Z,100709.72
2023-03-02T20:06:54.031Z,100708.78
2023-03-02T20:09:21.713Z,100708.81
2023-03-02T20:11:48.715Z,100705.31
2023-03-02T20:14:27.813Z,100706.19
2023-03-02T20:17:00.890Z,100707.06
2023-03-02T20:19:27.792Z,100706.19
2023-03-02T20:21:54.685Z,100703.56
2023-03-02T20:24:21.616Z,100700.94
2023-03-02T20:26:48.645Z,100704.47
2023-03-02T20:29:16.544Z,100706.19
2023-03-02T20:31:44.066Z,100703.59
2023-03-02T20:34:16.712Z,100706.19
2023-03-02T20:36:44.349Z,100709.72
2023-03-02T20:39:19.426Z,100709.66
2023-03-02T20:41:46.830Z,100709.56
2023-03-02T20:44:14.864Z,100709.56
2023-03-02T20:46:49.034Z,100715.78
2023-03-02T20:49:16.636Z,100707.94
2023-03-02T20:51:49.524Z,100708.75
2023-03-02T20:54:17.045Z,100707.00
2023-03-02T20:56:44.032Z,100719.94
2023-03-02T20:59:11.000Z,100711.28
2023-03-02T21:01:37.965Z,100710.44
2023-03-02T21:04:05.114Z,100704.31
2023-03-02T21:06:34.629Z,100701.72
2023-03-02T21:09:03.514Z,100702.63
2023-03-02T21:11:30.704Z,100701.72
2023-03-02T21:13:59.622Z,100700.00
2023-03-02T21:16:30.256Z,100698.28
2023-03-02T21:18:57.101Z,100699.16
2023-03-02T21:21:39.427Z,100699.13
2023-03-02T21:24:09.637Z,100694.75
2023-03-02T21:26:37.101Z,100697.38
2023-03-02T21:29:05.638Z,100691.28
2023-03-02T21:31:33.266Z,100686.88
2023-03-02T21:34:00.956Z,100686.03
2023-03-02T21:36:28.549Z,100686.84
2023-03-02T21:38:56.280Z,100692.13
2023-03-02T21:41:23.687Z,100680.81
2023-03-02T21:43:50.964Z,100689.59
2023-03-02T21:46:21.923Z,100683.44
2023-03-02T21:48:50.106Z,100690.41
2023-03-02T21:51:17.559Z,100690.41
2023-03-02T21:53:44.861Z,100691.28
2023-03-02T21:56:20.678Z,100685.19
2023-03-02T21:58:56.524Z,100679.88
2023-03-02T22:01:25.110Z,100681.66
2023-03-02T22:03:52.398Z,100668.53
2023-03-02T22:06:25.266Z,100670.28
2023-03-02T22:08:52.770Z,100668.56
2023-03-02T22:11:29.280Z,100665.94
2023-03-02T22:13:59.390Z,100666.81
2023-03-02T22:16:36.305Z,100665.97
2023-03-02T22:19:17.949Z,100660.72
2023-03-02T22:21:48.107Z,100665.94
2023-03-02T22:24:25.731Z,100659.84
2023-03-02T22:27:04.779Z,100667.72
2023-03-02T22:29:43.584Z,100665.06
2023-03-02T22:32:20.974Z,100665.94
2023-03-02T22:34:50.958Z,100660.63
2023-03-02T22:37:19.779Z,100662.44
2023-03-02T22:39:48.368Z,100658.94
2023-03-02T22:42:20.984Z,100662.44
2023-03-02T22:45:12.998Z,100661.56
2023-03-02T22:47:39.966Z,100664.22
2023-03-02T22:50:23.144Z,100665.06
2023-03-02T22:52:50.328Z,100663.31
2023-03-02T22:55:43.644Z,100654.56
2023-03-02T22:58:30.376Z,100659.81
2023-03-02T23:01:00.546Z,100649.31
2023-03-02T23:03:39.391Z,100655.47
2023-03-02T23:06:45.303Z,100654.53
2023-03-02T23:09:16.282Z,100646.72
2023-03-02T23:11:45.256Z,100656.31
2023-03-02T23:14:39.570Z,100655.44
2023-03-02T23:17:15.058Z,100653.69
2023-03-02T23:19:41.994Z,100653.66
2023-03-02T23:22:09.678Z,100644.06
2023-03-02T23:24:37.038Z,100643.19
2023-03-02T23:27:04.197Z,100636.19
2023-03-02T23:29:31.216Z,100634.47
2023-03-02T23:31:58.502Z,100632.69
2023-03-02T23:34:25.617Z,100636.19
2023-03-02T23:36:52.524Z,100630.06
2023-03-02T23:39:19.479Z,100632.69
2023-03-02T23:41:46.493Z,100633.56
2023-03-02T23:44:13.476Z,100626.53
2023-03-02T23:46:40.736Z,100626.56
2023-03-02T23:49:07.668Z,100617.84
2023-03-02T23:51:34.663Z,100628.31
2023-03-02T23:54:04.176Z,100616.06
2023-03-02T23:56:31.919Z,100621.31
2023-03-02T23:58:59.647Z,100622.22
